EGXP

Details ICAO EGXP
Name RAF Scampton
Region United Kingdom
Timezone Europe/London (UTC+1.0)
Plans Departing 31
Arriving 32
Stats Elevation 202 ft / 62 m (AMSL)
Location 53.307944° -0.550831°
Runways 1
Magnetic Variation 0.741° W
Sunrise 2018-05-22 03:53:50 UTC / 2018-05-22 04:53:50 Local
Sunset 2018-05-22 20:06:46 UTC / 2018-05-22 21:06:46 Local
Advertisement - Login to hide

Runways

ID Width Length Bearing (true) Bearing (mag) Surface Threshold Offset Overrun Length
04 200 ft / 61 m 8,974 ft / 2,735 m 41.07° 41.81° Asphalt 0 ft / 0 m 0 ft / 0 m
22 200 ft / 61 m 8,974 ft / 2,735 m 221.09° 221.83° Asphalt 0 ft / 0 m 0 ft / 0 m

Approach Navaids

Runway Type Ident Frequency Range Bearing (true) Bearing (mag) Slope Elevation
04 Localiser SC 108.30 MHz 18 nm / 33 km 41.08° 41.82° - 202 ft / 62 m (AMSL)
04 Glidescope SC 108.30 MHz 10 nm / 19 km 41.08° 41.82° 3.00° 202 ft / 62 m (AMSL)

Map

Weather


0- 5 10 15 20 25 30 35+ Temperature / ° C

Clouds and Precipitation
Forecast for 2018-05-22 00:00 UTC. Updated 6 hours ago

Ground ~20,000 ft ~40,000 ft Winds

METAR

EGXP 220450Z AUTO 34008KT 7000 // NCD 09/08 Q1017

TAF

Not found
Warning: Do not use this data for real-world aviation or navigation. No guarantee of current accuracy is given.